Terminal Aerodrome Forecast
Issued by NWS Los Angeles, CA

Home | Current Version | Previous Version | Text Only | Print | Product List | Glossary On
Versions: 1 2 3 4 5 6 7 8 9 10 11 12 13 14 15 16 17 18 19 20 21 22
000
FTUS46 KLOX 281100 RRA
TAFSMX
TAF
KSMX 281147Z 2812/2912 VRB03KT 4SM BR OVC002
     FM281400 VRB03KT 1/2SM FG VV001
     FM281600 VRB03KT 4SM BR OVC005
     FM281700 VRB03KT P6SM SKC
     FM281900 30014KT P6SM SKC
     FM290200 30006KT P6SM SKC
     FM290500 30007KT P6SM BKN005
     FM290900 VRB03KT 1/2SM FG VV001=

USA.gov is the U.S. government's official web portal to all federal, state and local government web resources and services.